Tiawah, Oklahoma
Current Conditions -  °F | °C
As of 10:55 AM on Monday 22 Dec 2014 (Local Time) from KGCM Reporting Station
Haze Haze  
Wind Chill: 45°   Ceiling: Unl
Heat Index: 48°   Visibility: 5mi
Dew Point: 46°   Wind: 8mph
Humidity: 93%   Direction: 180°S
Pressure: 29.61"   Gusts: NA
Location:  36.3346°N, 95.5666°W
Report Text: KGCM 221655Z AUTO 18007KT 5SM BR SCT008 09/08 A2961 RMK AO2
Loading
Personal Weather Stations






























Interactive Weather Map New forecast layout! Learn more

10-Day Weather Forecast

Advertisements
Track Severe Weather on mobile